Time;durP1;ratioP1;P1;durP2;ratioP2;P2;SDS_P1;SDS_P2;PMS_P1;PMS_P2;Temp;Humidity;BMP_temperature;BMP_pressure;BME280_temperature;BME280_humidity;BME280_pressure;Samples;Min_cycle;Max_cycle;Signal;HPM_P1;HPM_P2
2022/01/16 00:04:06;;;;;;;117.90;104.53;;;4.30;99.90;;;;;;4987726;28;20282;-80
2022/01/16 00:06:36;;;;;;;113.17;100.93;;;4.40;99.90;;;;;;5011354;28;20184;-81
2022/01/16 00:09:02;;;;;;;129.33;104.47;;;4.40;99.90;;;;;;5000355;28;20207;-80
2022/01/16 00:11:28;;;;;;;131.20;107.97;;;4.50;99.90;;;;;;5007337;28;20270;-81
2022/01/16 00:13:54;;;;;;;130.50;108.27;;;4.50;99.90;;;;;;5011704;28;20197;-80
2022/01/16 00:16:20;;;;;;;128.70;106.70;;;4.50;99.90;;;;;;5001435;28;20188;-80
2022/01/16 00:18:49;;;;;;;129.13;106.67;;;4.50;99.90;;;;;;5004765;28;20283;-80
2022/01/16 00:21:23;;;;;;;121.30;107.27;;;4.50;99.90;;;;;;5010348;28;20223;-80
2022/01/16 00:23:50;;;;;;;134.00;108.90;;;4.50;99.90;;;;;;5013011;28;20195;-80
2022/01/16 00:26:17;;;;;;;137.73;112.27;;;4.60;99.90;;;;;;5009556;28;20199;-81
2022/01/16 00:28:43;;;;;;;129.67;111.40;;;4.60;99.90;;;;;;5001735;28;20208;-81
2022/01/16 00:31:09;;;;;;;135.73;112.27;;;4.60;99.90;;;;;;5002847;28;20947;-82
2022/01/16 00:33:39;;;;;;;133.77;112.67;;;4.50;99.90;;;;;;5005039;28;20191;-81
2022/01/16 00:36:09;;;;;;;129.97;113.97;;;4.60;99.90;;;;;;5009912;28;20190;-81
2022/01/16 00:38:35;;;;;;;144.00;114.67;;;4.60;99.90;;;;;;5009151;28;20256;-81
2022/01/16 00:41:01;;;;;;;154.13;118.47;;;4.60;99.90;;;;;;5009257;28;20222;-80
2022/01/16 00:43:27;;;;;;;140.90;119.17;;;4.60;99.90;;;;;;5009661;28;20573;-81
2022/01/16 00:45:53;;;;;;;146.63;117.23;;;4.70;99.90;;;;;;4997948;28;20361;-80
2022/01/16 00:48:19;;;;;;;147.70;118.00;;;4.60;99.90;;;;;;5010033;28;20184;-81
2022/01/16 00:50:44;;;;;;;164.53;122.53;;;4.70;99.90;;;;;;4979411;28;20562;-81
2022/01/16 00:53:10;;;;;;;161.13;121.33;;;4.60;99.90;;;;;;5005629;28;20196;-81
2022/01/16 00:55:38;;;;;;;160.50;121.17;;;4.60;99.90;;;;;;4996300;28;20234;-81
2022/01/16 00:58:05;;;;;;;164.87;122.77;;;4.60;99.90;;;;;;5007888;28;20210;-82
2022/01/16 01:00:32;;;;;;;177.90;126.23;;;4.60;99.90;;;;;;5009704;28;20191;-80
2022/01/16 01:03:01;;;;;;;152.87;121.67;;;4.60;99.90;;;;;;5006722;28;20731;-81
2022/01/16 01:05:27;;;;;;;163.77;124.83;;;4.60;99.90;;;;;;5004888;28;20246;-82
2022/01/16 01:07:53;;;;;;;162.70;126.43;;;4.60;99.90;;;;;;5002503;28;20244;-81
2022/01/16 01:10:24;;;;;;;166.53;126.40;;;4.60;99.90;;;;;;5011324;28;20247;-81
2022/01/16 01:12:54;;;;;;;150.77;123.90;;;4.60;99.90;;;;;;4978078;28;20208;-80
2022/01/16 01:15:29;;;;;;;154.93;126.47;;;4.60;99.90;;;;;;4977742;28;20249;-80
2022/01/16 01:17:56;;;;;;;154.90;126.53;;;4.60;99.90;;;;;;5008280;28;20191;-80
2022/01/16 01:20:24;;;;;;;164.47;123.50;;;4.60;99.90;;;;;;4987723;28;20202;-81
2022/01/16 01:22:51;;;;;;;160.00;125.73;;;4.60;99.90;;;;;;5010637;28;20198;-81
2022/01/16 01:25:18;;;;;;;147.93;123.77;;;4.60;99.90;;;;;;5009139;28;20216;-81
2022/01/16 01:27:45;;;;;;;146.67;125.03;;;4.60;99.90;;;;;;5008305;28;20208;-80
2022/01/16 01:30:14;;;;;;;144.07;124.87;;;4.60;99.90;;;;;;5009575;28;20214;-81
2022/01/16 01:32:41;;;;;;;144.90;125.10;;;4.60;99.90;;;;;;5008407;28;20187;-79
2022/01/16 01:35:10;;;;;;;143.80;126.43;;;4.60;99.90;;;;;;4999128;28;20191;-80
2022/01/16 01:37:36;;;;;;;140.40;125.10;;;4.50;99.90;;;;;;5005392;28;20187;-79
2022/01/16 01:40:05;;;;;;;140.57;124.50;;;4.50;99.90;;;;;;5003931;28;20203;-82
2022/01/16 01:42:34;;;;;;;145.17;127.03;;;4.60;99.90;;;;;;5005219;28;20216;-80
2022/01/16 01:53:16;;;;;;;140.57;125.20;;;4.50;99.90;;;;;;5007153;28;20391;-79
2022/01/16 01:55:43;;;;;;;140.67;126.00;;;4.50;99.90;;;;;;5010930;28;20302;-80
2022/01/16 01:58:09;;;;;;;136.43;122.10;;;4.50;99.90;;;;;;5002349;28;20187;-81
2022/01/16 02:00:36;;;;;;;138.43;124.13;;;4.60;99.90;;;;;;4979007;28;20662;-81
2022/01/16 02:05:46;;;;;;;139.50;125.77;;;4.50;99.90;;;;;;5006636;28;20634;-80
2022/01/16 02:08:13;;;;;;;139.60;125.80;;;4.50;99.90;;;;;;5002550;28;20224;-81
2022/01/16 02:10:40;;;;;;;138.87;124.70;;;4.50;99.90;;;;;;5007211;28;20285;-80
2022/01/16 02:13:10;;;;;;;139.80;126.00;;;4.50;99.90;;;;;;5008892;28;20207;-80
2022/01/16 02:31:45;;;;;;;141.33;127.87;;;4.40;99.90;;;;;;4995132;28;20195;-82
2022/01/16 02:37:00;;;;;;;144.97;129.23;;;4.50;99.90;;;;;;5009617;28;20825;-80
2022/01/16 02:39:27;;;;;;;140.17;126.03;;;4.50;99.90;;;;;;5009798;28;20287;-81
2022/01/16 02:41:55;;;;;;;146.47;131.47;;;4.50;99.90;;;;;;4989148;28;20982;-80
2022/01/16 02:44:33;;;;;;;141.97;128.33;;;4.50;99.90;;;;;;4980979;28;20304;-80
2022/01/16 02:47:01;;;;;;;142.90;129.17;;;4.50;99.90;;;;;;5010868;28;20536;-80
2022/01/16 02:49:33;;;;;;;142.50;129.13;;;4.50;99.90;;;;;;5006716;28;20738;-81
2022/01/16 02:52:09;;;;;;;139.53;126.33;;;4.40;99.90;;;;;;5015694;28;20187;-80
2022/01/16 02:54:38;;;;;;;143.17;129.83;;;4.40;99.90;;;;;;4989114;28;20200;-81
2022/01/16 02:57:05;;;;;;;140.80;126.93;;;4.40;99.90;;;;;;4981640;28;20195;-80
2022/01/16 02:59:33;;;;;;;141.47;127.97;;;4.40;99.90;;;;;;5012422;28;20342;-80
2022/01/16 03:02:01;;;;;;;142.50;129.27;;;4.40;99.90;;;;;;5012639;28;20241;-79
2022/01/16 03:04:27;;;;;;;141.70;127.83;;;4.40;99.90;;;;;;5005937;28;20290;-80
2022/01/16 03:06:53;;;;;;;139.70;126.60;;;4.40;99.90;;;;;;4966651;28;20200;-80
2022/01/16 03:09:21;;;;;;;143.33;129.33;;;4.40;99.90;;;;;;4981464;28;20752;-82
2022/01/16 03:11:49;;;;;;;143.63;130.03;;;4.40;99.90;;;;;;5007311;28;20989;-80
2022/01/16 03:14:19;;;;;;;142.97;129.97;;;4.40;99.90;;;;;;5009713;28;20290;-80
2022/01/16 03:16:49;;;;;;;143.70;130.20;;;4.40;99.90;;;;;;5017779;28;20653;-81
2022/01/16 03:22:03;;;;;;;142.70;129.37;;;4.30;99.90;;;;;;5015261;28;20254;-81
2022/01/16 03:24:37;;;;;;;141.60;128.93;;;4.30;99.90;;;;;;5010536;28;20200;-81
2022/01/16 03:27:04;;;;;;;144.70;130.77;;;4.30;99.90;;;;;;5012446;28;20243;-82
2022/01/16 03:29:31;;;;;;;142.13;128.77;;;4.30;99.90;;;;;;5016178;28;20329;-80
2022/01/16 03:32:01;;;;;;;144.73;131.27;;;4.30;99.90;;;;;;4998724;28;20207;-82
2022/01/16 03:34:27;;;;;;;143.97;130.80;;;4.30;99.90;;;;;;5006413;28;20195;-82
2022/01/16 03:36:53;;;;;;;145.43;132.27;;;4.30;99.90;;;;;;5007490;28;20193;-81
2022/01/16 03:39:19;;;;;;;142.17;129.33;;;4.30;99.90;;;;;;5007426;28;20599;-82
2022/01/16 03:41:45;;;;;;;140.10;127.70;;;4.30;99.90;;;;;;5006726;28;20232;-82
2022/01/16 03:44:10;;;;;;;138.03;125.20;;;4.30;99.90;;;;;;4993674;28;20247;-80
2022/01/16 03:46:39;;;;;;;141.80;128.83;;;4.30;99.90;;;;;;5014676;28;20203;-82
2022/01/16 03:49:08;;;;;;;143.90;130.80;;;4.30;99.90;;;;;;5006494;28;20250;-83
2022/01/16 03:51:35;;;;;;;140.30;127.53;;;4.30;99.90;;;;;;5007275;28;20566;-79
2022/01/16 03:54:00;;;;;;;140.37;127.77;;;4.30;99.90;;;;;;5011160;28;20833;-80
2022/01/16 03:56:26;;;;;;;143.27;130.40;;;4.30;99.90;;;;;;5009718;28;20279;-80
2022/01/16 03:58:54;;;;;;;140.43;128.03;;;4.30;99.90;;;;;;5004350;28;20206;-80
2022/01/16 04:01:19;;;;;;;139.03;126.43;;;4.30;99.90;;;;;;5009100;28;20212;-81
2022/01/16 04:03:45;;;;;;;139.30;126.03;;;4.30;99.90;;;;;;4987909;28;20275;-79
2022/01/16 04:06:11;;;;;;;139.03;126.67;;;4.30;99.90;;;;;;4989455;28;20203;-79
2022/01/16 04:08:37;;;;;;;138.60;125.90;;;4.30;99.90;;;;;;5010664;28;20238;-80
2022/01/16 04:11:03;;;;;;;137.97;126.07;;;4.30;99.90;;;;;;4985794;28;20231;-78
2022/01/16 04:13:31;;;;;;;140.83;127.97;;;4.30;99.90;;;;;;5004572;28;20207;-81
2022/01/16 04:15:57;;;;;;;140.93;128.20;;;4.30;99.90;;;;;;5006406;28;20227;-80
2022/01/16 04:18:22;;;;;;;137.37;125.43;;;4.40;99.90;;;;;;5004045;28;20199;-81
2022/01/16 04:20:48;;;;;;;135.80;123.60;;;4.40;99.90;;;;;;5010994;28;20204;-80
2022/01/16 04:23:14;;;;;;;134.27;122.67;;;4.50;99.90;;;;;;5008491;28;20192;-80
2022/01/16 04:25:39;;;;;;;133.93;122.13;;;4.40;99.90;;;;;;4964594;28;20481;-80
2022/01/16 04:28:05;;;;;;;134.07;122.20;;;4.40;99.90;;;;;;5012112;28;20222;-81
2022/01/16 04:30:31;;;;;;;136.67;124.37;;;4.50;99.90;;;;;;5005383;28;20267;-81
2022/01/16 04:32:57;;;;;;;132.70;121.00;;;4.50;99.90;;;;;;5008529;28;20199;-80
2022/01/16 04:35:24;;;;;;;134.13;122.17;;;4.60;99.90;;;;;;4991069;28;20291;-80
2022/01/16 04:37:49;;;;;;;132.77;121.10;;;4.60;99.90;;;;;;5007872;28;20218;-81
2022/01/16 04:40:16;;;;;;;132.77;121.53;;;4.60;99.90;;;;;;5008095;28;20188;-80
2022/01/16 04:45:27;;;;;;;126.93;116.47;;;4.70;99.90;;;;;;4992400;28;20608;-80
2022/01/16 04:47:53;;;;;;;126.10;115.80;;;4.70;99.90;;;;;;4978914;28;20250;-80
2022/01/16 04:50:22;;;;;;;123.37;113.17;;;4.70;99.90;;;;;;5003936;28;20180;-78
2022/01/16 04:52:48;;;;;;;126.07;115.57;;;4.80;99.90;;;;;;5007390;28;20207;-81
2022/01/16 04:55:15;;;;;;;125.40;114.93;;;4.80;99.90;;;;;;5005810;28;20226;-80
2022/01/16 04:57:41;;;;;;;127.00;116.33;;;4.80;99.90;;;;;;5010391;28;20274;-82
2022/01/16 05:00:14;;;;;;;123.20;113.03;;;4.80;99.90;;;;;;4993893;28;20307;-80
2022/01/16 05:02:40;;;;;;;121.27;111.73;;;4.90;99.90;;;;;;5005834;28;20272;-81
2022/01/16 05:05:06;;;;;;;123.20;113.63;;;5.00;99.90;;;;;;5001717;28;20199;-81
2022/01/16 05:07:32;;;;;;;119.37;109.93;;;4.90;99.90;;;;;;5001314;28;20210;-80
2022/01/16 05:09:57;;;;;;;122.70;112.73;;;5.00;99.90;;;;;;5002123;28;20327;-80
2022/01/16 05:12:32;;;;;;;117.97;108.77;;;5.00;99.90;;;;;;5007367;28;20223;-80
2022/01/16 05:17:43;;;;;;;115.30;106.33;;;5.00;99.90;;;;;;5005737;28;20241;-80
2022/01/16 05:20:09;;;;;;;114.00;105.17;;;5.10;99.90;;;;;;5003510;28;20282;-80
2022/01/16 05:22:36;;;;;;;115.37;106.83;;;5.10;99.90;;;;;;5008617;28;20215;-80
2022/01/16 05:25:04;;;;;;;111.57;102.97;;;5.20;99.90;;;;;;4995779;28;20190;-79
2022/01/16 05:27:29;;;;;;;105.90;98.60;;;5.20;99.90;;;;;;4978799;28;20208;-80
2022/01/16 05:29:55;;;;;;;101.90;94.57;;;5.30;99.90;;;;;;4984145;28;20214;-80
2022/01/16 05:32:21;;;;;;;99.10;92.33;;;5.30;99.90;;;;;;4989784;28;20662;-80
2022/01/16 05:34:46;;;;;;;96.70;90.03;;;5.50;99.90;;;;;;5009697;28;20187;-81
2022/01/16 05:37:12;;;;;;;95.50;88.77;;;5.60;99.90;;;;;;5010502;28;20616;-80
2022/01/16 05:39:39;;;;;;;90.17;83.80;;;5.70;99.90;;;;;;4978873;28;20214;-81
2022/01/16 05:42:05;;;;;;;89.10;83.53;;;5.80;99.90;;;;;;4969642;28;20207;-80
2022/01/16 05:44:31;;;;;;;86.00;81.10;;;5.90;99.90;;;;;;4979082;28;20237;-80
2022/01/16 05:47:02;;;;;;;84.60;79.70;;;6.00;99.90;;;;;;5001173;28;20191;-79
2022/01/16 05:49:28;;;;;;;79.57;75.07;;;6.10;99.90;;;;;;4987198;28;20196;-81
2022/01/16 05:51:53;;;;;;;78.93;74.23;;;6.20;99.90;;;;;;5013188;28;20198;-79
2022/01/16 05:54:19;;;;;;;75.30;71.27;;;6.30;99.90;;;;;;4975262;28;20202;-81
2022/01/16 05:56:44;;;;;;;69.83;66.07;;;6.40;99.90;;;;;;5007092;28;20286;-80
2022/01/16 05:59:10;;;;;;;66.60;62.70;;;6.40;99.90;;;;;;4987805;28;20223;-81
2022/01/16 06:01:37;;;;;;;63.57;60.23;;;6.50;99.90;;;;;;5004047;28;20212;-81
2022/01/16 06:04:03;;;;;;;60.03;56.47;;;6.60;99.90;;;;;;5004166;28;20180;-81
2022/01/16 06:06:29;;;;;;;56.13;52.97;;;6.60;99.90;;;;;;5005315;28;20198;-80
2022/01/16 06:08:55;;;;;;;50.73;47.83;;;6.60;99.90;;;;;;4970591;28;20618;-80
2022/01/16 06:11:20;;;;;;;47.67;45.07;;;6.70;99.90;;;;;;4984370;28;20205;-80
2022/01/16 06:13:46;;;;;;;43.37;40.97;;;6.70;99.90;;;;;;4987742;28;20219;-81
2022/01/16 06:16:12;;;;;;;37.83;35.73;;;6.80;99.90;;;;;;5003382;28;20191;-81
2022/01/16 06:18:38;;;;;;;35.67;33.57;;;6.80;99.90;;;;;;4979123;28;20775;-81
2022/01/16 06:21:03;;;;;;;32.87;30.97;;;6.80;99.90;;;;;;5002354;28;20806;-81
2022/01/16 06:23:29;;;;;;;29.10;27.47;;;6.80;99.90;;;;;;5007976;28;20192;-80
2022/01/16 06:25:55;;;;;;;27.03;25.27;;;6.90;99.90;;;;;;5003948;28;20193;-80
2022/01/16 06:28:25;;;;;;;23.03;21.70;;;6.90;99.90;;;;;;4977487;28;20223;-80
2022/01/16 06:30:51;;;;;;;21.97;20.67;;;7.00;99.90;;;;;;5003699;28;20669;-80
2022/01/16 06:33:17;;;;;;;20.20;18.90;;;7.00;99.90;;;;;;4957976;28;20319;-80
2022/01/16 06:35:43;;;;;;;20.70;19.17;;;7.00;99.90;;;;;;5002546;28;20765;-80
2022/01/16 06:38:09;;;;;;;19.43;17.90;;;7.00;99.90;;;;;;5004466;28;20180;-78
2022/01/16 06:40:34;;;;;;;17.97;16.77;;;7.00;99.90;;;;;;5006962;28;20187;-80
2022/01/16 06:43:00;;;;;;;18.57;16.83;;;7.00;99.90;;;;;;5004543;28;20299;-80
2022/01/16 06:45:26;;;;;;;18.20;16.50;;;7.00;99.90;;;;;;5008254;28;20223;-80
2022/01/16 06:47:52;;;;;;;17.17;15.63;;;7.00;99.90;;;;;;4992117;28;20270;-82
2022/01/16 06:50:18;;;;;;;17.73;16.33;;;7.00;99.90;;;;;;5004321;28;20207;-81
2022/01/16 06:52:43;;;;;;;15.83;14.47;;;7.00;99.90;;;;;;4997692;28;20215;-81
2022/01/16 06:55:10;;;;;;;16.97;15.23;;;7.10;99.90;;;;;;4976822;28;20256;-81
2022/01/16 06:57:35;;;;;;;15.80;14.30;;;7.10;99.90;;;;;;5005433;28;20203;-79
2022/01/16 07:00:03;;;;;;;16.27;14.60;;;7.10;99.90;;;;;;4986432;28;20281;-81
2022/01/16 07:02:29;;;;;;;14.13;12.93;;;7.10;99.90;;;;;;4961059;28;20592;-81
2022/01/16 07:04:54;;;;;;;14.37;13.00;;;7.20;99.90;;;;;;5003850;28;20192;-80
2022/01/16 07:07:20;;;;;;;13.87;12.50;;;7.20;99.90;;;;;;5006396;28;20192;-80
2022/01/16 07:09:46;;;;;;;13.53;12.17;;;7.20;99.90;;;;;;5002659;28;20662;-80
2022/01/16 07:12:12;;;;;;;13.63;12.23;;;7.20;99.90;;;;;;5003542;28;20678;-80
2022/01/16 07:14:37;;;;;;;12.27;11.27;;;7.20;99.90;;;;;;5002981;28;20260;-80
2022/01/16 07:17:04;;;;;;;13.20;11.70;;;7.20;99.90;;;;;;4972904;28;20192;-80
2022/01/16 07:19:31;;;;;;;12.73;11.50;;;7.20;99.90;;;;;;5007386;28;20194;-79
2022/01/16 07:21:57;;;;;;;15.53;10.93;;;7.30;99.90;;;;;;5004311;28;20250;-80
2022/01/16 07:24:23;;;;;;;12.37;11.20;;;7.30;99.90;;;;;;5006291;28;20287;-79
2022/01/16 07:26:49;;;;;;;14.53;10.73;;;7.30;99.90;;;;;;5001349;28;20666;-79
2022/01/16 07:29:14;;;;;;;14.47;11.40;;;7.30;99.90;;;;;;4996676;28;20211;-81
2022/01/16 07:31:40;;;;;;;15.73;12.87;;;7.30;99.90;;;;;;4971982;28;20390;-81
2022/01/16 07:34:08;;;;;;;18.03;13.63;;;7.30;99.90;;;;;;5007780;28;20631;-80
2022/01/16 07:36:34;;;;;;;15.60;14.07;;;7.40;99.90;;;;;;4998388;28;20200;-80
2022/01/16 07:38:59;;;;;;;15.67;14.03;;;7.30;99.90;;;;;;4982809;28;20692;-81
2022/01/16 07:41:25;;;;;;;15.60;14.10;;;7.30;99.90;;;;;;5012391;28;20254;-82
2022/01/16 07:43:51;;;;;;;16.03;14.27;;;7.40;99.90;;;;;;5012238;28;20791;-81
2022/01/16 07:46:17;;;;;;;16.27;14.77;;;7.30;99.90;;;;;;4996123;28;20197;-80
2022/01/16 07:48:43;;;;;;;22.70;17.40;;;7.30;99.90;;;;;;4989782;28;20206;-79
2022/01/16 07:51:09;;;;;;;25.13;19.77;;;7.30;99.90;;;;;;5007565;28;20203;-79
2022/01/16 07:53:36;;;;;;;24.07;20.00;;;7.20;99.90;;;;;;5007593;28;20199;-80
2022/01/16 07:56:03;;;;;;;30.87;23.33;;;7.10;99.90;;;;;;4990248;28;20195;-81
2022/01/16 07:58:29;;;;;;;33.33;25.63;;;7.00;99.90;;;;;;4986704;28;20561;-80
2022/01/16 08:00:56;;;;;;;43.27;29.20;;;7.00;99.90;;;;;;4998197;28;20223;-79
2022/01/16 08:03:22;;;;;;;49.87;30.93;;;6.90;99.90;;;;;;5010148;28;20189;-80
2022/01/16 08:05:48;;;;;;;46.33;32.73;;;6.80;99.90;;;;;;5009977;28;20203;-80
2022/01/16 08:08:14;;;;;;;50.83;35.17;;;6.80;99.90;;;;;;4976707;28;20220;-81
2022/01/16 08:10:40;;;;;;;54.07;36.47;;;6.70;99.90;;;;;;5008653;28;20192;-81
2022/01/16 08:13:06;;;;;;;54.87;38.53;;;6.70;99.90;;;;;;5010839;28;20661;-81
2022/01/16 08:15:31;;;;;;;54.80;39.93;;;6.60;99.90;;;;;;4992932;28;20196;-81
2022/01/16 08:17:57;;;;;;;56.40;41.27;;;6.60;99.90;;;;;;4999261;28;20251;-81
2022/01/16 08:20:23;;;;;;;53.60;42.43;;;6.60;99.90;;;;;;5009806;28;20681;-80
2022/01/16 08:22:49;;;;;;;55.60;44.67;;;6.50;99.90;;;;;;4993837;28;20687;-81
2022/01/16 08:25:15;;;;;;;59.10;45.17;;;6.50;99.90;;;;;;5012376;28;20234;-80
2022/01/16 08:27:41;;;;;;;60.43;48.17;;;6.50;99.90;;;;;;5011329;28;20515;-80
2022/01/16 08:30:08;;;;;;;66.37;48.13;;;6.50;99.90;;;;;;5010875;28;20229;-81
2022/01/16 08:32:34;;;;;;;63.87;49.90;;;6.50;99.90;;;;;;4991555;28;20200;-81
2022/01/16 08:35:00;;;;;;;69.77;51.10;;;6.50;99.90;;;;;;5011789;28;20203;-79
2022/01/16 08:37:27;;;;;;;63.57;50.43;;;6.50;99.90;;;;;;5013049;28;20195;-81
2022/01/16 08:39:53;;;;;;;74.17;54.70;;;6.50;99.90;;;;;;5016258;28;20196;-81
2022/01/16 08:42:19;;;;;;;72.57;54.53;;;6.50;99.90;;;;;;5003730;28;21229;-80
2022/01/16 08:44:45;;;;;;;70.97;53.83;;;6.50;99.90;;;;;;5015916;28;20226;-79
2022/01/16 08:47:10;;;;;;;68.30;56.17;;;6.50;99.90;;;;;;4992002;28;20187;-80
2022/01/16 08:49:36;;;;;;;73.70;56.87;;;6.50;99.90;;;;;;4972918;28;20188;-81
2022/01/16 08:52:03;;;;;;;74.60;54.97;;;6.50;99.90;;;;;;5009402;28;20192;-80
2022/01/16 08:54:29;;;;;;;85.30;59.93;;;6.50;99.90;;;;;;5004794;28;20195;-80
2022/01/16 08:56:55;;;;;;;76.00;57.17;;;6.40;99.90;;;;;;5006659;28;21173;-79
2022/01/16 08:59:21;;;;;;;79.63;60.70;;;6.50;99.90;;;;;;5008822;28;20190;-82
2022/01/16 09:01:46;;;;;;;85.73;61.27;;;6.50;99.90;;;;;;4977503;28;20283;-80
2022/01/16 09:04:13;;;;;;;78.73;59.67;;;6.50;99.90;;;;;;5008642;28;20200;-80
2022/01/16 09:06:39;;;;;;;83.63;61.90;;;6.50;99.90;;;;;;5010359;28;20943;-80
2022/01/16 09:09:04;;;;;;;93.40;66.10;;;6.50;99.90;;;;;;4973394;28;20188;-81
2022/01/16 09:11:30;;;;;;;86.97;62.07;;;6.50;99.90;;;;;;5006902;28;20203;-80
2022/01/16 09:13:58;;;;;;;88.53;65.53;;;6.50;99.90;;;;;;4984300;28;20665;-80
2022/01/16 09:16:24;;;;;;;83.27;65.53;;;6.50;99.90;;;;;;5004841;28;20195;-80
2022/01/16 09:18:50;;;;;;;88.73;66.67;;;6.60;99.90;;;;;;4990026;28;20199;-80
2022/01/16 09:21:17;;;;;;;93.67;67.03;;;6.60;99.90;;;;;;5010079;28;20220;-80
2022/01/16 09:23:48;;;;;;;83.47;65.20;;;6.60;99.90;;;;;;5006187;28;20192;-81
2022/01/16 09:26:17;;;;;;;95.03;68.00;;;6.60;99.90;;;;;;5004819;28;20182;-79
2022/01/16 09:28:43;;;;;;;102.07;69.20;;;6.60;99.90;;;;;;4992797;28;20660;-79
2022/01/16 09:31:09;;;;;;;98.50;69.53;;;6.60;99.90;;;;;;5003090;28;20204;-81
2022/01/16 09:33:35;;;;;;;99.10;70.40;;;6.60;99.90;;;;;;5000495;28;20211;-80
2022/01/16 09:36:03;;;;;;;93.40;68.57;;;6.60;99.90;;;;;;5001630;28;20203;-79
2022/01/16 09:38:29;;;;;;;101.03;67.50;;;6.60;99.90;;;;;;5001827;28;20204;-81
2022/01/16 09:40:55;;;;;;;88.80;63.77;;;6.60;99.90;;;;;;4981094;28;20208;-81
2022/01/16 09:43:21;;;;;;;89.47;63.50;;;6.60;99.90;;;;;;5011392;28;20693;-81
2022/01/16 09:45:51;;;;;;;94.93;65.93;;;6.60;99.90;;;;;;5005850;28;20243;-81
2022/01/16 09:48:17;;;;;;;93.50;64.93;;;6.60;99.90;;;;;;4991626;28;20216;-81
2022/01/16 09:50:43;;;;;;;98.83;66.80;;;6.50;99.90;;;;;;5008774;28;20211;-81
2022/01/16 09:53:09;;;;;;;97.47;66.67;;;6.50;99.90;;;;;;5011734;28;20207;-82
2022/01/16 09:55:35;;;;;;;93.63;64.07;;;6.50;99.90;;;;;;5010453;28;20222;-82
2022/01/16 09:58:01;;;;;;;92.33;67.37;;;6.40;99.90;;;;;;4996767;28;20202;-81
2022/01/16 10:00:27;;;;;;;101.57;69.90;;;6.40;99.90;;;;;;4993154;28;20214;-81
2022/01/16 10:02:53;;;;;;;101.47;74.20;;;6.40;99.90;;;;;;5007785;28;20301;-80
2022/01/16 10:05:25;;;;;;;100.10;71.57;;;6.40;99.90;;;;;;5008050;28;20191;-80
2022/01/16 10:07:54;;;;;;;115.43;76.40;;;6.40;99.90;;;;;;5007444;28;20278;-81
2022/01/16 10:10:23;;;;;;;110.17;76.43;;;6.40;99.90;;;;;;5009848;28;20192;-82
2022/01/16 10:12:51;;;;;;;110.40;77.10;;;6.30;99.90;;;;;;5010703;28;20373;-81
2022/01/16 10:15:27;;;;;;;108.43;77.00;;;6.40;99.90;;;;;;4989397;28;20763;-80
2022/01/16 10:17:58;;;;;;;106.90;77.63;;;6.40;99.90;;;;;;5012655;28;20198;-81
2022/01/16 10:20:26;;;;;;;94.40;75.73;;;6.40;99.90;;;;;;5005322;28;20188;-82
2022/01/16 10:23:00;;;;;;;106.83;80.10;;;6.40;99.90;;;;;;5004501;28;20226;-81
2022/01/16 10:25:41;;;;;;;101.53;77.67;;;6.50;99.90;;;;;;5006045;28;20195;-82
2022/01/16 10:28:16;;;;;;;106.07;76.53;;;6.60;99.90;;;;;;5003427;28;20192;-81
2022/01/16 10:30:44;;;;;;;105.20;75.20;;;6.60;99.90;;;;;;5007094;28;20278;-81
2022/01/16 10:33:16;;;;;;;111.63;78.30;;;6.70;99.90;;;;;;5016616;28;20183;-80
2022/01/16 10:35:44;;;;;;;100.67;77.33;;;6.70;99.90;;;;;;5012014;28;20202;-81
2022/01/16 10:38:16;;;;;;;108.80;77.80;;;6.70;99.90;;;;;;5012612;28;20207;-82
2022/01/16 10:40:44;;;;;;;109.00;80.43;;;6.80;99.90;;;;;;5005931;28;20211;-81
2022/01/16 10:43:13;;;;;;;106.13;78.20;;;6.80;99.90;;;;;;5003600;28;20326;-81
2022/01/16 10:45:43;;;;;;;107.03;77.20;;;6.90;99.90;;;;;;5007311;28;20223;-80
2022/01/16 10:48:12;;;;;;;102.27;76.73;;;6.90;99.90;;;;;;5006086;28;20237;-81
2022/01/16 10:50:41;;;;;;;110.63;78.43;;;6.90;99.90;;;;;;5004385;28;20191;-81
2022/01/16 10:53:17;;;;;;;104.23;76.67;;;7.00;99.90;;;;;;5004301;28;20259;-81
2022/01/16 10:55:49;;;;;;;104.60;74.63;;;7.00;99.90;;;;;;5008918;28;20191;-81
2022/01/16 10:58:24;;;;;;;96.87;75.77;;;7.10;99.90;;;;;;5006265;28;20231;-81
2022/01/16 11:00:59;;;;;;;97.03;74.90;;;7.20;99.90;;;;;;5008097;28;20183;-81
2022/01/16 11:03:27;;;;;;;89.47;73.33;;;7.30;99.90;;;;;;4997678;28;20287;-80
2022/01/16 11:05:53;;;;;;;90.73;75.23;;;7.30;99.90;;;;;;5007702;28;20195;-82
2022/01/16 11:08:25;;;;;;;84.67;71.93;;;7.40;99.90;;;;;;5005885;28;20187;-81
2022/01/16 11:10:56;;;;;;;98.90;74.07;;;7.40;99.90;;;;;;5007739;28;20678;-81
2022/01/16 11:13:34;;;;;;;87.57;72.87;;;7.50;99.90;;;;;;5007780;28;20261;-81
2022/01/16 11:16:05;;;;;;;95.20;68.90;;;7.60;99.90;;;;;;5013635;28;20739;-81
2022/01/16 11:18:35;;;;;;;86.10;68.20;;;7.60;99.90;;;;;;5015982;28;20195;-82
2022/01/16 11:23:32;;;;;;;85.60;71.17;;;7.70;99.90;;;;;;4995476;28;20196;-81
2022/01/16 11:26:01;;;;;;;80.70;66.63;;;7.80;99.90;;;;;;4979943;28;20200;-81
2022/01/16 11:28:27;;;;;;;75.90;64.67;;;7.80;99.90;;;;;;5013685;28;20868;-81
2022/01/16 11:30:57;;;;;;;77.17;63.67;;;7.90;99.90;;;;;;4999384;28;20957;-81
2022/01/16 11:33:25;;;;;;;72.17;63.57;;;7.90;99.90;;;;;;4992390;28;20187;-81
2022/01/16 11:35:56;;;;;;;68.93;60.17;;;8.00;99.90;;;;;;5009316;28;20952;-81
2022/01/16 11:38:34;;;;;;;68.87;60.30;;;8.10;99.90;;;;;;5012054;28;20197;-81
2022/01/16 11:41:24;;;;;;;65.93;58.83;;;8.20;99.90;;;;;;5011423;28;20204;-80
2022/01/16 11:43:54;;;;;;;67.47;58.97;;;8.30;99.90;;;;;;4997109;28;20248;-80
2022/01/16 11:46:28;;;;;;;64.17;57.27;;;8.40;99.90;;;;;;5015834;28;20196;-82
2022/01/16 11:49:00;;;;;;;63.87;56.60;;;8.40;99.90;;;;;;4992971;28;20187;-81
2022/01/16 11:51:35;;;;;;;63.60;55.73;;;8.50;99.90;;;;;;5013015;28;20195;-82
2022/01/16 11:54:21;;;;;;;60.03;53.93;;;8.60;99.90;;;;;;5013119;28;20214;-82
2022/01/16 11:56:46;;;;;;;59.80;53.60;;;8.50;99.90;;;;;;5010747;28;20937;-80
2022/01/16 11:59:15;;;;;;;56.70;50.67;;;8.50;99.90;;;;;;5010079;28;20192;-80
2022/01/16 12:02:00;;;;;;;56.37;50.67;;;8.50;99.90;;;;;;5012030;28;20756;-81
2022/01/16 12:04:29;;;;;;;55.30;49.63;;;8.50;99.90;;;;;;5002223;28;20609;-82
2022/01/16 12:06:55;;;;;;;56.37;50.43;;;8.60;99.90;;;;;;5009732;28;20184;-81
2022/01/16 12:09:47;;;;;;;56.30;50.43;;;8.60;99.90;;;;;;5012096;28;20238;-81
2022/01/16 12:12:17;;;;;;;55.60;49.83;;;8.60;99.90;;;;;;5010516;28;20695;-81
2022/01/16 12:15:05;;;;;;;54.77;49.27;;;8.60;99.90;;;;;;5006690;28;20188;-82
2022/01/16 12:17:31;;;;;;;53.00;47.53;;;8.70;99.90;;;;;;5010894;28;20219;-80
2022/01/16 12:20:17;;;;;;;49.53;44.80;;;8.70;99.90;;;;;;5008091;28;20196;-81
2022/01/16 12:22:52;;;;;;;46.33;41.83;;;8.60;99.90;;;;;;4992770;28;20229;-81
2022/01/16 12:25:25;;;;;;;45.30;41.00;;;8.50;99.90;;;;;;5015222;28;20190;-81
2022/01/16 12:27:52;;;;;;;42.57;38.47;;;8.40;99.90;;;;;;5008601;28;20640;-82
2022/01/16 12:30:32;;;;;;;40.67;36.87;;;8.30;99.90;;;;;;5008948;28;20207;-82
2022/01/16 12:33:03;;;;;;;38.60;35.20;;;8.30;99.90;;;;;;5011218;28;20245;-82
2022/01/16 12:35:54;;;;;;;37.17;33.87;;;8.40;99.90;;;;;;5014826;28;20191;-82
2022/01/16 12:38:23;;;;;;;35.87;33.03;;;8.30;99.90;;;;;;5012479;28;20181;-81
2022/01/16 12:40:59;;;;;;;35.50;32.20;;;8.30;99.90;;;;;;5011463;28;20192;-82
2022/01/16 12:43:33;;;;;;;32.90;30.30;;;8.30;99.90;;;;;;5005180;28;20352;-81
2022/01/16 12:46:02;;;;;;;34.37;31.67;;;8.30;99.90;;;;;;5014351;28;20229;-81
2022/01/16 12:48:28;;;;;;;35.83;33.03;;;8.30;99.90;;;;;;5005697;28;20183;-81
2022/01/16 12:51:05;;;;;;;36.20;33.10;;;8.20;99.90;;;;;;5007919;28;20199;-82
2022/01/16 12:53:42;;;;;;;38.73;34.93;;;8.20;99.90;;;;;;5008843;28;20236;-82
2022/01/16 12:56:38;;;;;;;39.60;35.87;;;8.20;99.90;;;;;;5010183;28;20191;-82
2022/01/16 12:59:05;;;;;;;41.20;37.07;;;8.20;99.90;;;;;;5008711;28;20268;-81
2022/01/16 13:01:33;;;;;;;42.23;38.10;;;8.20;99.90;;;;;;5016525;28;20293;-81
2022/01/16 13:03:59;;;;;;;45.33;40.47;;;8.20;99.90;;;;;;5010892;28;20195;-81
2022/01/16 13:06:31;;;;;;;47.97;42.97;;;8.10;99.90;;;;;;4993112;28;20192;-81
2022/01/16 13:09:09;;;;;;;50.53;45.13;;;8.10;99.90;;;;;;5003636;28;20246;-81
2022/01/16 13:11:49;;;;;;;52.77;47.27;;;8.00;99.90;;;;;;4991663;28;20198;-81
2022/01/16 13:14:25;;;;;;;52.77;47.30;;;7.90;99.90;;;;;;5009556;28;20255;-80
2022/01/16 13:16:52;;;;;;;55.30;48.60;;;7.90;99.90;;;;;;5006541;28;20291;-79